Time;durP1;ratioP1;P1;durP2;ratioP2;P2;SDS_P1;SDS_P2;PMS_P1;PMS_P2;Temp;Humidity;BMP_temperature;BMP_pressure;BME280_temperature;BME280_humidity;BME280_pressure;Samples;Min_cycle;Max_cycle;Signal;HPM_P1;HPM_P2
2024/03/05 00:01:02;;;;;;;32.13;13.65;;;;;;;3.57;100.00;100917.19;5077973;28;20024;-74
2024/03/05 00:03:27;;;;;;;31.38;13.52;;;;;;;3.79;100.00;100923.53;5068298;28;20032;-73
2024/03/05 00:05:54;;;;;;;28.42;13.07;;;;;;;3.79;100.00;100927.03;5071213;28;20040;-75
2024/03/05 00:08:20;;;;;;;32.03;14.15;;;;;;;3.52;100.00;100895.59;5070788;28;20028;-71
2024/03/05 00:10:45;;;;;;;33.30;14.50;;;;;;;3.72;100.00;100928.44;5071255;28;20039;-73
2024/03/05 00:13:12;;;;;;;31.35;13.88;;;;;;;3.79;100.00;100926.16;5075615;28;20036;-72
2024/03/05 00:15:39;;;;;;;35.28;14.18;;;;;;;3.54;100.00;100898.94;5072285;28;20036;-74
2024/03/05 00:18:05;;;;;;;27.85;13.60;;;;;;;3.76;100.00;100923.75;5053341;28;20045;-74
2024/03/05 00:20:34;;;;;;;32.53;15.13;;;;;;;3.68;100.00;100894.47;5062480;28;20040;-74
2024/03/05 00:22:59;;;;;;;24.02;12.27;;;;;;;3.66;100.00;100901.66;5078055;28;20040;-72
2024/03/05 00:25:26;;;;;;;26.10;12.80;;;;;;;3.54;100.00;100898.13;5069811;28;20103;-76
2024/03/05 00:27:52;;;;;;;25.25;12.20;;;;;;;3.79;100.00;100926.16;5045036;28;20033;-74
2024/03/05 00:30:18;;;;;;;34.28;12.23;;;;;;;3.69;100.00;100901.41;5082858;28;20155;-75
2024/03/05 00:32:47;;;;;;;27.48;13.75;;;;;;;3.87;100.00;100922.97;5071192;28;20119;-70
2024/03/05 00:35:13;;;;;;;31.55;14.13;;;;;;;3.71;100.00;100887.13;5074278;28;20040;-74
2024/03/05 00:37:39;;;;;;;28.30;12.45;;;;;;;3.61;100.00;100885.31;5063671;28;20020;-71
2024/03/05 00:40:09;;;;;;;32.03;12.90;;;;;;;3.37;100.00;100880.84;5067186;28;20388;-73
2024/03/05 00:42:35;;;;;;;28.00;12.80;;;;;;;3.69;100.00;100928.66;5031894;28;20059;-72
2024/03/05 00:45:01;;;;;;;23.83;11.73;;;;;;;3.40;100.00;100904.41;5061905;28;20025;-74
2024/03/05 00:47:26;;;;;;;26.08;12.77;;;;;;;3.68;100.00;100945.47;5068938;28;20028;-73
2024/03/05 00:49:51;;;;;;;29.88;11.77;;;;;;;3.68;100.00;100913.78;5045156;28;20117;-74
2024/03/05 00:52:17;;;;;;;28.70;11.83;;;;;;;3.71;100.00;100926.75;5076611;28;20111;-74
2024/03/05 00:54:44;;;;;;;30.17;11.85;;;;;;;3.76;100.00;100929.03;5059527;28;20752;-74
2024/03/05 00:57:11;;;;;;;34.95;12.88;;;;;;;3.37;100.00;100897.56;5082020;28;20048;-73
2024/03/05 00:59:37;;;;;;;25.55;11.68;;;;;;;3.46;100.00;100921.59;5071887;28;20025;-73
2024/03/05 01:02:03;;;;;;;29.10;12.20;;;;;;;3.53;100.00;100933.38;5065760;28;20475;-73
2024/03/05 01:04:29;;;;;;;34.72;11.55;;;;;;;3.52;100.00;100932.53;5062820;28;20395;-71
2024/03/05 01:06:56;;;;;;;31.00;12.60;;;;;;;3.68;100.00;100947.28;5070067;28;20047;-74
2024/03/05 01:09:24;;;;;;;23.77;10.95;;;;;;;3.52;100.00;100926.44;5073223;23;20021;-72
2024/03/05 01:11:53;;;;;;;29.52;11.10;;;;;;;3.45;100.00;100914.63;5079460;28;20051;-72
2024/03/05 01:14:20;;;;;;;21.17;10.48;;;;;;;3.51;100.00;100930.00;5066368;28;20040;-77
2024/03/05 01:16:46;;;;;;;24.73;11.60;;;;;;;3.44;100.00;100920.84;5083526;28;20020;-72
2024/03/05 01:19:12;;;;;;;29.67;10.93;;;;;;;3.45;100.00;100930.47;5072212;28;20032;-73
2024/03/05 01:21:38;;;;;;;30.55;11.85;;;;;;;3.50;100.00;100923.06;5084377;28;20501;-72
2024/03/05 01:24:04;;;;;;;27.38;11.48;;;;;;;3.34;100.00;100916.25;5085390;28;20954;-72
2024/03/05 01:26:29;;;;;;;29.75;10.52;;;;;;;3.35;100.00;100915.31;5084328;28;20547;-73
2024/03/05 01:28:55;;;;;;;27.88;11.43;;;;;;;3.28;100.00;100914.06;5072605;28;20186;-72
2024/03/05 01:31:22;;;;;;;25.10;11.63;;;;;;;3.26;100.00;100915.97;5073323;28;20036;-72
2024/03/05 01:33:48;;;;;;;31.95;13.70;;;;;;;3.08;100.00;100912.00;5071565;28;20028;-75
2024/03/05 01:36:15;;;;;;;;;;;;;;;3.15;100.00;100952.84;5069055;28;20045;-71
2024/03/05 01:38:42;;;;;;;28.90;10.52;;;;;;;3.12;100.00;100960.97;5070531;28;19912;-75
2024/03/05 01:41:07;;;;;;;25.25;10.63;;;;;;;3.14;100.00;100959.06;5061387;28;20045;-75
2024/03/05 01:43:32;;;;;;;30.08;11.73;;;;;;;3.21;100.00;100970.00;5069093;28;20033;-75
2024/03/05 01:45:58;;;;;;;33.47;12.00;;;;;;;3.28;100.00;100972.13;5068857;28;20095;-75
2024/03/05 01:48:24;;;;;;;20.15;11.30;;;;;;;3.18;100.00;100957.88;5067737;28;20845;-73
2024/03/05 01:50:50;;;;;;;36.05;13.60;;;;;;;3.11;100.00;100946.09;5062740;28;20039;-74
2024/03/05 01:53:16;;;;;;;27.85;12.10;;;;;;;3.15;100.00;100950.19;5057837;28;20078;-73
2024/03/05 01:55:43;;;;;;;23.35;11.70;;;;;;;3.19;100.00;100966.66;5061906;28;20060;-74
2024/03/05 01:58:11;;;;;;;25.60;10.88;;;;;;;3.16;100.00;100958.00;5066091;28;20054;-75
2024/03/05 02:00:36;;;;;;;33.97;12.90;;;;;;;3.20;100.00;100950.69;5073956;28;20024;-75
2024/03/05 02:03:02;;;;;;;30.65;12.73;;;;;;;3.15;100.00;100966.84;5062922;28;20041;-75
2024/03/05 02:05:28;;;;;;;24.45;11.27;;;;;;;3.15;100.00;100966.03;5075007;28;20043;-75
2024/03/05 02:07:53;;;;;;;40.67;14.23;;;;;;;3.10;100.00;100953.16;5074143;28;20035;-72
2024/03/05 02:10:20;;;;;;;22.50;11.82;;;;;;;3.16;100.00;100967.69;5080422;28;20024;-72
2024/03/05 02:12:46;;;;;;;25.55;12.15;;;;;;;3.14;100.00;100975.75;5063619;28;20027;-74
2024/03/05 02:15:11;;;;;;;30.88;12.85;;;;;;;3.14;100.00;100965.19;5070674;28;20138;-75
2024/03/05 02:17:40;;;;;;;27.45;12.98;;;;;;;3.16;100.00;100989.66;5072537;28;20036;-75
2024/03/05 02:20:09;;;;;;;29.25;12.07;;;;;;;3.18;100.00;100994.81;5065774;28;20032;-72
2024/03/05 02:22:39;;;;;;;35.15;13.20;;;;;;;3.36;100.00;101006.72;5071185;28;20037;-75
2024/03/05 02:25:05;;;;;;;33.53;12.75;;;;;;;3.44;100.00;101000.91;5060004;28;20124;-75
2024/03/05 02:27:36;;;;;;;23.70;11.77;;;;;;;3.33;100.00;100985.81;5063139;28;20546;-75
2024/03/05 02:30:09;;;;;;;33.67;12.70;;;;;;;3.50;100.00;101008.34;5066306;28;20404;-71
2024/03/05 02:32:40;;;;;;;28.95;11.02;;;;;;;3.54;100.00;100990.53;5064486;28;20029;-75
2024/03/05 02:35:09;;;;;;;28.70;11.70;;;;;;;3.61;100.00;100983.84;5068112;28;20043;-73
2024/03/05 02:37:38;;;;;;;33.60;11.43;;;;;;;3.58;100.00;100970.84;5054946;28;20032;-75
2024/03/05 02:40:14;;;;;;;23.48;10.57;;;;;;;3.52;100.00;100953.66;5046747;28;20036;-71
2024/03/05 02:42:42;;;;;;;26.58;10.32;;;;;;;3.48;100.00;100949.53;5068724;28;20056;-72
2024/03/05 02:45:10;;;;;;;20.60;9.48;;;;;;;3.51;100.00;100966.97;5056110;28;20087;-71
2024/03/05 02:47:40;;;;;;;25.55;9.60;;;;;;;3.54;100.00;100966.75;5078267;28;20123;-72
2024/03/05 02:50:08;;;;;;;23.67;9.35;;;;;;;3.43;100.00;100950.84;5065903;28;20032;-75
2024/03/05 02:52:35;;;;;;;21.95;10.15;;;;;;;3.50;100.00;100954.72;5072883;28;20024;-72
2024/03/05 02:55:01;;;;;;;21.20;9.30;;;;;;;3.54;100.00;100951.75;5076725;28;20364;-74
2024/03/05 02:57:26;;;;;;;21.35;9.45;;;;;;;3.61;100.00;100956.59;5077814;28;20074;-72
2024/03/05 02:59:52;;;;;;;21.10;9.10;;;;;;;3.73;100.00;100956.53;5072243;28;20040;-75
2024/03/05 03:02:17;;;;;;;25.50;9.20;;;;;;;3.60;100.00;100924.03;5078840;28;20078;-75
2024/03/05 03:04:43;;;;;;;25.35;10.13;;;;;;;3.60;100.00;100926.69;5067025;28;20291;-75
2024/03/05 03:07:09;;;;;;;28.13;9.68;;;;;;;3.55;100.00;100915.63;5068173;28;20037;-73
2024/03/05 03:09:35;;;;;;;;;;;;;;;3.55;100.00;100923.53;5085641;28;20032;-75
2024/03/05 03:12:00;;;;;;;19.80;7.88;;;;;;;3.42;100.00;100925.38;5070711;28;19920;-73
2024/03/05 03:14:26;;;;;;;21.40;8.95;;;;;;;3.43;100.00;100933.22;5071268;28;20032;-75
2024/03/05 03:16:52;;;;;;;18.42;8.63;;;;;;;3.36;100.00;100926.69;5066031;28;20111;-74
2024/03/05 03:19:17;;;;;;;22.85;8.88;;;;;;;3.25;100.00;100923.97;5078010;28;20050;-75
2024/03/05 03:21:44;;;;;;;19.52;8.93;;;;;;;3.47;100.00;100960.25;5068217;28;20043;-74
2024/03/05 03:24:13;;;;;;;22.60;8.98;;;;;;;3.39;100.00;100955.50;5070640;28;20531;-75
2024/03/05 03:26:38;;;;;;;22.42;9.77;;;;;;;3.42;100.00;100944.75;5068975;28;20954;-72
2024/03/05 03:29:07;;;;;;;22.35;9.38;;;;;;;3.21;100.00;100928.66;5077618;28;20032;-71
2024/03/05 03:31:32;;;;;;;21.33;9.73;;;;;;;3.43;100.00;100969.31;5077069;28;20034;-75
2024/03/05 03:33:58;;;;;;;22.95;8.65;;;;;;;3.39;100.00;100963.41;5077722;28;20037;-75
2024/03/05 03:36:24;;;;;;;18.17;8.48;;;;;;;3.38;100.00;100953.81;5058928;28;20039;-75
2024/03/05 03:38:50;;;;;;;27.95;9.75;;;;;;;3.32;100.00;100956.91;5065819;28;20027;-74
2024/03/05 03:41:15;;;;;;;;;;;;;;;3.40;100.00;100974.84;5073411;28;20175;-75
2024/03/05 03:43:41;;;;;;;19.77;9.38;;;;;;;3.29;100.00;100957.97;5076230;28;19994;-73
2024/03/05 03:46:08;;;;;;;17.75;9.50;;;;;;;3.50;100.00;100971.41;5077139;28;20032;-73
2024/03/05 03:48:37;;;;;;;18.05;9.18;;;;;;;3.30;100.00;100943.81;5076781;28;20020;-74
2024/03/05 03:51:03;;;;;;;21.63;9.60;;;;;;;3.09;100.00;100925.09;5077207;28;20039;-75
2024/03/05 03:53:28;;;;;;;23.30;9.05;;;;;;;3.30;100.00;100970.22;5067174;28;20031;-74
2024/03/05 03:55:54;;;;;;;19.08;9.85;;;;;;;3.25;100.00;100964.41;5058965;28;20047;-71
2024/03/05 03:58:19;;;;;;;20.70;8.35;;;;;;;3.23;100.00;100957.56;5079635;28;20028;-72
2024/03/05 04:00:44;;;;;;;21.67;8.18;;;;;;;3.28;100.00;100961.56;5076390;28;20122;-75
2024/03/05 04:03:10;;;;;;;18.83;8.53;;;;;;;3.30;100.00;100964.94;5078956;28;20020;-75
2024/03/05 04:05:35;;;;;;;21.60;9.35;;;;;;;3.46;100.00;100971.75;5058420;28;20293;-73
2024/03/05 04:08:01;;;;;;;19.40;8.93;;;;;;;3.38;100.00;100967.84;5072516;28;20032;-75
2024/03/05 04:10:27;;;;;;;19.17;9.15;;;;;;;3.17;100.00;100959.69;5075659;28;20300;-75
2024/03/05 04:12:52;;;;;;;23.00;9.17;;;;;;;3.28;100.00;100982.69;5072002;28;20032;-75
2024/03/05 04:15:18;;;;;;;20.40;8.25;;;;;;;3.29;100.00;100968.50;5085322;28;20286;-73
2024/03/05 04:17:45;;;;;;;22.00;8.75;;;;;;;3.26;100.00;100968.75;5084873;28;20953;-74
2024/03/05 04:20:10;;;;;;;21.83;8.43;;;;;;;3.34;100.00;100974.31;5067022;28;20376;-76
2024/03/05 04:22:39;;;;;;;17.30;8.52;;;;;;;3.17;100.00;100951.75;5069208;28;20039;-75
2024/03/05 04:25:05;;;;;;;23.20;9.70;;;;;;;3.24;100.00;100970.66;5056256;28;20035;-75
2024/03/05 04:27:30;;;;;;;16.88;8.32;;;;;;;3.16;100.00;100972.97;5058347;28;20119;-75
2024/03/05 04:29:59;;;;;;;31.23;9.20;;;;;;;3.32;100.00;101002.59;5080956;28;20039;-74
2024/03/05 04:32:26;;;;;;;23.33;10.40;;;;;;;3.28;100.00;101002.94;5072156;28;20074;-74
2024/03/05 04:35:00;;;;;;;19.98;8.60;;;;;;;3.19;100.00;100987.78;5072538;28;20411;-75
2024/03/05 04:37:30;;;;;;;17.23;8.07;;;;;;;3.35;100.00;101009.47;5052791;28;21598;-74
2024/03/05 04:39:56;;;;;;;19.85;9.18;;;;;;;3.25;100.00;100988.16;5080971;28;20032;-75
2024/03/05 04:42:22;;;;;;;;;;;;;;;3.14;100.00;100978.38;5074256;28;20558;-74
2024/03/05 04:44:48;;;;;;;20.17;8.23;;;;;;;3.13;100.00;100987.22;5066932;28;19998;-76
2024/03/05 04:47:13;;;;;;;27.55;10.38;;;;;;;3.09;100.00;100990.19;5072560;28;20901;-73
2024/03/05 04:49:39;;;;;;;20.73;9.40;;;;;;;3.09;100.00;100998.09;5075114;28;20032;-72
2024/03/05 04:52:04;;;;;;;23.90;8.65;;;;;;;2.99;100.00;100987.34;5065255;28;20123;-72
2024/03/05 04:54:29;;;;;;;27.67;10.55;;;;;;;2.92;100.00;100981.66;5057941;28;20024;-75
2024/03/05 04:56:56;;;;;;;18.73;9.07;;;;;;;3.05;100.00;101009.84;5069711;28;20036;-74
2024/03/05 04:59:21;;;;;;;;;;;;;;;3.12;100.00;101014.56;5069713;28;20025;-75
2024/03/05 05:01:47;;;;;;;20.85;9.68;;;;;;;2.95;100.00;100978.00;5064129;28;19919;-74
2024/03/05 05:04:12;;;;;;;21.40;10.07;;;;;;;3.01;100.00;100989.91;5049801;28;20032;-73
2024/03/05 05:06:38;;;;;;;21.27;9.45;;;;;;;3.07;100.00;101006.16;5078017;28;20032;-75
2024/03/05 05:09:05;;;;;;;17.70;9.15;;;;;;;3.07;100.00;101000.88;5076885;28;20063;-75
2024/03/05 05:11:31;;;;;;;20.90;9.52;;;;;;;2.98;100.00;100984.84;5087708;28;20114;-73
2024/03/05 05:13:57;;;;;;;22.10;9.93;;;;;;;3.05;100.00;100991.38;5081659;28;20040;-72
2024/03/05 05:16:22;;;;;;;21.00;10.25;;;;;;;2.98;100.00;101005.94;5077699;28;20093;-73
2024/03/05 05:18:48;;;;;;;21.92;9.93;;;;;;;3.02;100.00;101008.28;5078511;28;20038;-71
2024/03/05 05:21:13;;;;;;;23.30;8.82;;;;;;;3.05;100.00;101004.56;5060707;28;20125;-75
2024/03/05 05:23:39;;;;;;;18.17;9.02;;;;;;;2.81;100.00;100973.69;5087813;28;20509;-75
2024/03/05 05:26:05;;;;;;;26.90;10.00;;;;;;;2.79;100.00;100983.50;5087480;28;20031;-73
2024/03/05 05:28:30;;;;;;;25.30;9.93;;;;;;;2.93;100.00;101019.47;5088640;28;20539;-73
2024/03/05 05:30:55;;;;;;;22.30;8.80;;;;;;;2.91;100.00;100994.97;5084195;28;20035;-73
2024/03/05 05:33:21;;;;;;;28.80;10.48;;;;;;;2.75;100.00;100974.94;5081336;28;20325;-73
2024/03/05 05:35:47;;;;;;;14.38;8.13;;;;;;;2.87;100.00;101004.88;5072235;28;20024;-73
2024/03/05 05:38:12;;;;;;;17.00;7.90;;;;;;;2.85;100.00;100996.22;5088069;28;20086;-73
2024/03/05 05:40:38;;;;;;;20.27;8.18;;;;;;;2.96;100.00;101012.16;5070357;28;20047;-73
2024/03/05 05:43:04;;;;;;;21.52;8.25;;;;;;;2.81;100.00;100972.81;5088590;28;20043;-74
2024/03/05 05:45:29;;;;;;;20.80;9.52;;;;;;;2.82;100.00;100988.53;5083272;28;20123;-73
2024/03/05 05:47:56;;;;;;;15.05;8.95;;;;;;;2.69;100.00;100964.84;5072205;28;20033;-73
2024/03/05 05:50:23;;;;;;;16.88;8.45;;;;;;;2.82;100.00;101000.91;5083208;28;20050;-72
2024/03/05 05:52:54;;;;;;;19.80;8.27;;;;;;;2.77;100.00;100995.94;5067149;28;20722;-74
2024/03/05 05:55:20;;;;;;;17.80;9.68;;;;;;;2.81;100.00;100994.78;5079979;28;20028;-74
2024/03/05 05:57:49;;;;;;;27.45;11.05;;;;;;;2.85;100.00;100996.22;5083805;28;20023;-74
2024/03/05 06:00:23;;;;;;;23.98;10.27;;;;;;;2.65;100.00;100970.44;5085292;28;20091;-72
2024/03/05 06:02:55;;;;;;;31.15;10.73;;;;;;;2.81;100.00;100993.91;5082416;28;20836;-72
2024/03/05 06:05:26;;;;;;;23.63;9.88;;;;;;;2.86;100.00;101003.22;5083557;28;20026;-73
2024/03/05 06:07:52;;;;;;;21.40;11.30;;;;;;;2.78;100.00;100984.44;5078993;28;20039;-73
2024/03/05 06:10:18;;;;;;;31.48;10.05;;;;;;;2.87;100.00;101020.72;5087125;28;20032;-74
2024/03/05 06:12:47;;;;;;;20.10;9.80;;;;;;;3.00;100.00;101025.13;5086633;28;20043;-75
2024/03/05 06:15:13;;;;;;;27.83;10.95;;;;;;;2.97;100.00;101015.63;5087737;28;20032;-73
2024/03/05 06:17:40;;;;;;;25.92;9.88;;;;;;;2.91;100.00;101006.38;5082278;28;20027;-73
2024/03/05 06:20:13;;;;;;;19.00;9.43;;;;;;;2.73;100.00;100970.72;5086559;28;20394;-73
2024/03/05 06:22:39;;;;;;;21.13;9.85;;;;;;;2.93;100.00;101022.09;5069705;28;20024;-73
2024/03/05 06:25:09;;;;;;;18.67;9.15;;;;;;;2.73;100.00;101007.63;5087657;28;20042;-73
2024/03/05 06:27:38;;;;;;;18.30;10.27;;;;;;;2.95;100.00;101033.38;5086969;28;20039;-73
2024/03/05 06:30:07;;;;;;;18.42;9.95;;;;;;;3.02;100.00;101033.78;5086197;28;20554;-75
2024/03/05 06:32:43;;;;;;;20.80;8.82;;;;;;;2.86;100.00;100997.94;5087424;28;20073;-73
2024/03/05 06:35:15;;;;;;;20.38;10.98;;;;;;;2.86;100.00;101026.94;5087313;28;20864;-75
2024/03/05 06:37:43;;;;;;;25.30;9.98;;;;;;;2.99;100.00;101049.81;5076565;28;20443;-73
2024/03/05 06:40:10;;;;;;;20.73;8.82;;;;;;;2.87;100.00;101015.44;5087097;28;20028;-74
2024/03/05 06:42:38;;;;;;;21.88;8.60;;;;;;;2.82;100.00;101009.63;5086957;28;20036;-72
2024/03/05 06:45:15;;;;;;;20.40;8.05;;;;;;;2.90;100.00;101015.25;5086087;28;20050;-74
2024/03/05 06:47:54;;;;;;;20.63;8.55;;;;;;;3.04;100.00;101000.22;5080665;28;20032;-73
2024/03/05 06:50:23;;;;;;;20.30;8.55;;;;;;;3.09;100.00;100998.97;5085637;28;20466;-72
2024/03/05 06:58:20;;;;;;;16.20;7.30;;;;;;;3.07;100.00;100948.09;5079773;28;20162;-72
2024/03/05 07:00:46;;;;;;;15.75;7.75;;;;;;;3.02;100.00;100923.84;5070891;28;20115;-73
2024/03/05 07:03:15;;;;;;;14.50;7.43;;;;;;;3.24;100.00;100933.69;5082245;28;20024;-74
2024/03/05 07:05:42;;;;;;;21.70;7.75;;;;;;;3.23;100.00;100910.91;5085488;28;20055;-73
2024/03/05 07:08:08;;;;;;;12.77;6.65;;;;;;;3.16;100.00;100891.19;5073591;28;20036;-73
2024/03/05 07:10:34;;;;;;;;;;;;;;;3.10;100.00;100863.47;5075167;28;20028;-73
2024/03/05 07:12:59;;;;;;;19.23;7.45;;;;;;;3.17;100.00;100891.09;5076974;28;20057;-73
2024/03/05 07:15:25;;;;;;;21.45;7.65;;;;;;;3.24;100.00;100917.88;5085143;28;20107;-73
2024/03/05 07:17:50;;;;;;;14.65;6.07;;;;;;;3.10;100.00;100891.66;5079068;28;20039;-72
2024/03/05 07:20:19;;;;;;;17.33;7.15;;;;;;;3.03;100.00;100914.97;5085664;28;20031;-72
2024/03/05 07:22:48;;;;;;;19.65;7.55;;;;;;;3.44;100.00;100986.84;5086934;28;20032;-73
2024/03/05 07:25:16;;;;;;;16.95;7.60;;;;;;;3.15;100.00;100934.38;5086746;28;20112;-74
2024/03/05 07:27:44;;;;;;;15.90;6.90;;;;;;;2.96;100.00;100919.84;5068587;28;20028;-72
2024/03/05 07:30:12;;;;;;;20.17;8.60;;;;;;;3.11;100.00;100943.44;5079724;28;20032;-72
2024/03/05 07:32:38;;;;;;;17.10;7.45;;;;;;;3.07;100.00;100948.09;5060296;28;20406;-73
2024/03/05 07:35:05;;;;;;;19.40;8.75;;;;;;;3.37;100.00;100982.03;5059454;28;20043;-74
2024/03/05 07:37:30;;;;;;;18.98;7.60;;;;;;;3.25;100.00;100930.09;5067058;28;20124;-73
2024/03/05 07:39:55;;;;;;;14.18;6.57;;;;;;;3.17;100.00;100906.06;5073762;28;20112;-73
2024/03/05 07:42:21;;;;;;;21.83;6.97;;;;;;;3.51;100.00;100953.75;5071313;28;20047;-73
2024/03/05 07:44:46;;;;;;;19.52;6.55;;;;;;;3.36;100.00;100916.97;5075662;28;20028;-72
2024/03/05 07:47:12;;;;;;;15.70;7.17;;;;;;;3.42;100.00;100901.63;5082674;28;20028;-74
2024/03/05 07:49:37;;;;;;;10.98;6.57;;;;;;;3.47;100.00;100865.22;5081134;28;20499;-73
2024/03/05 07:52:02;;;;;;;13.00;6.30;;;;;;;3.47;100.00;100836.19;5071391;28;20276;-73
2024/03/05 07:54:28;;;;;;;11.45;5.90;;;;;;;3.61;100.00;100830.69;5067108;28;20036;-73
2024/03/05 07:56:53;;;;;;;13.57;7.05;;;;;;;3.67;100.00;100832.03;5085982;28;20028;-74
2024/03/05 07:59:18;;;;;;;15.77;6.80;;;;;;;3.68;100.00;100824.00;5084755;28;20097;-74
2024/03/05 08:01:45;;;;;;;14.10;6.17;;;;;;;3.62;100.00;100827.09;5084981;28;20340;-73
2024/03/05 08:04:10;;;;;;;21.60;6.90;;;;;;;3.48;100.00;100829.94;5077426;28;20035;-73
2024/03/05 08:06:36;;;;;;;15.13;6.93;;;;;;;3.34;100.00;100817.75;5085669;28;20032;-73
2024/03/05 08:09:03;;;;;;;19.35;6.82;;;;;;;3.55;100.00;100857.53;5076393;28;20044;-73
2024/03/05 08:11:28;;;;;;;18.83;7.30;;;;;;;3.55;100.00;100841.72;5077436;28;20518;-75
2024/03/05 08:13:54;;;;;;;14.23;7.10;;;;;;;3.87;100.00;100880.72;5086003;28;20165;-73
2024/03/05 08:16:20;;;;;;;16.60;7.40;;;;;;;3.45;100.00;100801.13;5085933;28;20024;-73
2024/03/05 08:18:46;;;;;;;;;;;;;;;3.61;100.00;100840.44;5086244;28;20888;-73
2024/03/05 08:21:11;;;;;;;17.23;8.25;;;;;;;3.33;100.00;100787.88;5081173;28;19916;-74
2024/03/05 08:23:36;;;;;;;17.00;7.37;;;;;;;3.74;100.00;100857.00;5085860;28;20748;-73
2024/03/05 08:26:05;;;;;;;19.20;8.45;;;;;;;3.68;100.00;100823.16;5085769;28;20289;-74
2024/03/05 08:28:30;;;;;;;15.88;7.20;;;;;;;3.33;100.00;100766.78;5085453;28;20478;-74
2024/03/05 08:30:56;;;;;;;17.08;7.57;;;;;;;3.25;100.00;100752.47;5085896;28;20070;-73
2024/03/05 08:33:23;;;;;;;15.35;7.45;;;;;;;3.32;100.00;100798.56;5085734;28;20043;-73
2024/03/05 08:35:48;;;;;;;17.52;7.50;;;;;;;3.44;100.00;100776.53;5085597;28;20087;-75
2024/03/05 08:38:14;;;;;;;19.92;7.65;;;;;;;3.38;100.00;100759.34;5083969;28;20482;-73
2024/03/05 08:40:39;;;;;;;18.08;7.47;;;;;;;3.17;100.00;100753.88;5070521;28;20131;-73
2024/03/05 08:43:07;;;;;;;18.83;8.13;;;;;;;3.10;100.00;100778.22;5081214;28;20119;-73
2024/03/05 08:45:36;;;;;;;15.77;7.38;;;;;;;3.20;100.00;100805.59;5085658;28;20036;-73
2024/03/05 08:48:01;;;;;;;18.58;9.00;;;;;;;3.02;100.00;100751.53;5085514;28;20035;-73
2024/03/05 08:50:29;;;;;;;13.88;7.72;;;;;;;3.38;100.00;100813.94;5075739;28;20021;-73
2024/03/05 08:52:55;;;;;;;19.20;8.68;;;;;;;3.45;100.00;100772.09;5085696;28;20401;-73
2024/03/05 08:55:20;;;;;;;17.00;8.10;;;;;;;3.52;100.00;100770.66;5067984;28;20037;-73
2024/03/05 08:57:46;;;;;;;16.17;8.00;;;;;;;3.36;100.00;100755.97;5072746;28;20028;-73
2024/03/05 09:00:17;;;;;;;19.48;7.50;;;;;;;3.58;100.00;100820.34;5068986;28;20089;-73
2024/03/05 09:02:43;;;;;;;16.52;7.75;;;;;;;3.53;100.00;100748.59;5065229;28;20123;-74
2024/03/05 09:05:11;;;;;;;17.80;7.07;;;;;;;3.69;100.00;100767.56;5067243;28;20108;-73
2024/03/05 09:07:38;;;;;;;19.52;7.80;;;;;;;3.57;100.00;100723.63;5062045;28;20036;-73
2024/03/05 09:10:06;;;;;;;17.77;8.18;;;;;;;3.42;100.00;100693.13;5085362;28;20024;-73
2024/03/05 09:12:31;;;;;;;25.55;7.78;;;;;;;3.35;100.00;100671.66;5058029;28;20036;-73
2024/03/05 09:14:57;;;;;;;15.02;7.85;;;;;;;3.61;100.00;100690.78;5066281;28;20040;-74
2024/03/05 09:17:22;;;;;;;15.70;6.90;;;;;;;3.38;100.00;100640.59;5050792;28;20048;-73
2024/03/05 09:19:48;;;;;;;16.50;7.50;;;;;;;3.68;100.00;100686.69;5053268;28;20757;-74
2024/03/05 09:22:16;;;;;;;15.35;7.70;;;;;;;3.91;100.00;100703.38;5042341;28;20040;-73
2024/03/05 09:24:45;;;;;;;17.95;7.40;;;;;;;3.70;100.00;100652.22;5068140;28;20032;-73
2024/03/05 09:27:12;;;;;;;14.60;7.13;;;;;;;3.67;100.00;100628.72;5076671;28;20445;-73
2024/03/05 09:29:39;;;;;;;14.75;7.57;;;;;;;3.91;100.00;100612.72;5059960;28;20020;-73
2024/03/05 09:32:05;;;;;;;13.65;7.53;;;;;;;3.89;100.00;100506.38;5083614;28;20474;-73
2024/03/05 09:34:31;;;;;;;13.05;7.60;;;;;;;3.70;100.00;100412.81;5083557;28;20118;-73
2024/03/05 09:36:57;;;;;;;16.23;7.63;;;;;;;3.92;100.00;100424.25;5084677;28;20031;-73
2024/03/05 09:39:22;;;;;;;15.27;7.30;;;;;;;4.05;100.00;100435.47;5084700;28;20613;-73
2024/03/05 09:41:48;;;;;;;16.03;8.87;;;;;;;3.92;100.00;100430.34;5084822;28;20278;-73
2024/03/05 09:44:15;;;;;;;13.93;8.18;;;;;;;3.96;100.00;100445.00;5084888;28;20031;-73
2024/03/05 09:46:45;;;;;;;18.70;8.68;;;;;;;4.09;100.00;100492.34;5084351;28;20032;-73
2024/03/05 09:49:15;;;;;;;16.30;9.25;;;;;;;4.40;100.00;100510.94;5066436;28;20024;-73
2024/03/05 09:51:41;;;;;;;20.63;10.45;;;;;;;4.29;100.00;100418.53;5083546;28;20027;-74
2024/03/05 09:54:10;;;;;;;18.63;10.65;;;;;;;4.22;100.00;100371.47;5087814;28;20035;-74
2024/03/05 09:56:42;;;;;;;17.10;9.52;;;;;;;4.08;100.00;100415.88;5086633;28;20043;-75
2024/03/05 09:59:10;;;;;;;19.20;9.95;;;;;;;4.32;100.00;100479.88;5086807;28;20030;-73
2024/03/05 10:01:36;;;;;;;17.33;10.68;;;;;;;4.15;100.00;100417.03;5081322;28;20510;-73
2024/03/05 10:04:04;;;;;;;;;;;;;;;4.32;100.00;100444.69;5068719;28;20447;-73
2024/03/05 10:06:29;;;;;;;19.33;9.20;;;;;;;4.08;100.00;100405.31;5075085;28;19916;-73
2024/03/05 10:08:54;;;;;;;15.25;9.25;;;;;;;4.35;100.00;100455.81;5069811;28;20100;-73
2024/03/05 10:11:20;;;;;;;19.47;10.17;;;;;;;4.54;100.00;100476.28;5087658;28;20024;-73
2024/03/05 10:13:45;;;;;;;22.23;10.73;;;;;;;4.79;100.00;100464.41;5087835;28;20748;-73
2024/03/05 10:16:22;;;;;;;12.67;8.73;;;;;;;4.58;100.00;100355.22;5076179;28;20032;-73
2024/03/05 10:18:49;;;;;;;20.55;9.25;;;;;;;4.89;100.00;100400.97;5064773;28;20278;-73
2024/03/05 10:21:18;;;;;;;18.27;9.52;;;;;;;4.68;100.00;100357.88;5084080;28;20422;-74
2024/03/05 10:23:45;;;;;;;18.02;8.65;;;;;;;4.53;100.00;100366.19;5087725;28;20032;-73
2024/03/05 10:26:21;;;;;;;17.73;9.30;;;;;;;4.60;100.00;100317.09;5087240;28;20036;-73
2024/03/05 10:28:47;;;;;;;17.13;9.05;;;;;;;4.77;100.00;100293.59;5082150;28;20399;-73
2024/03/05 10:31:23;;;;;;;17.10;9.23;;;;;;;5.01;100.00;100362.88;5081458;28;20039;-74
2024/03/05 10:33:50;;;;;;;17.00;9.57;;;;;;;4.68;100.00;100143.69;5087672;28;20114;-73
2024/03/05 10:36:31;;;;;;;19.13;10.02;;;;;;;5.88;100.00;100226.94;5087354;28;20032;-73
2024/03/05 10:38:57;;;;;;;15.02;8.77;;;;;;;6.02;100.00;99978.41;5083082;28;20026;-74
2024/03/05 10:41:34;;;;;;;15.50;8.93;;;;;;;6.14;100.00;99897.66;5084653;28;20925;-74
2024/03/05 10:44:00;;;;;;;14.75;7.85;;;;;;;5.87;100.00;99626.53;5084115;28;20552;-73
2024/03/05 10:46:30;;;;;;;16.30;8.35;;;;;;;6.21;100.00;99776.78;5083582;28;20023;-73
2024/03/05 10:49:01;;;;;;;15.68;8.48;;;;;;;6.49;100.00;99792.50;5086753;28;20054;-74
2024/03/05 10:51:30;;;;;;;15.38;8.30;;;;;;;5.52;100.00;99647.88;5081243;28;20807;-74
2024/03/05 10:54:00;;;;;;;17.30;9.00;;;;;;;5.88;100.00;99779.22;5084345;28;20020;-73
2024/03/05 10:56:26;;;;;;;13.75;8.70;;;;;;;5.96;100.00;99843.88;5073226;28;20483;-74
2024/03/05 11:01:37;;;;;;;13.32;7.75;;;;;;;6.08;100.00;99801.03;5069422;28;20047;-73
2024/03/05 11:04:22;;;;;;;14.77;8.27;;;;;;;6.64;100.00;99751.09;5057812;28;20145;-74
2024/03/05 11:06:54;;;;;;;14.75;8.25;;;;;;;6.02;100.00;99498.81;5057286;28;20035;-73
2024/03/05 11:09:21;;;;;;;18.83;8.82;;;;;;;5.90;100.00;99535.34;5075378;28;20173;-74
2024/03/05 11:12:08;;;;;;;18.65;8.50;;;;;;;5.80;100.00;99675.84;5066549;28;20028;-73
2024/03/05 11:14:35;;;;;;;16.67;8.05;;;;;;;6.36;100.00;99802.69;5085188;28;20032;-74
2024/03/05 11:17:09;;;;;;;16.25;8.00;;;;;;;6.45;100.00;99377.53;5081771;28;20317;-73
2024/03/05 11:19:44;;;;;;;16.83;8.50;;;;;;;5.62;100.00;99270.81;5083655;28;20032;-73
2024/03/05 11:22:24;;;;;;;13.73;7.68;;;;;;;7.18;100.00;100024.97;5067044;28;20068;-73
2024/03/05 11:25:05;;;;;;;13.02;7.25;;;;;;;8.47;100.00;99936.03;5079175;28;20028;-74